sensor_id;sensor_type;location;lat;lon;timestamp;P1;durP1;ratioP1;P2;durP2;ratioP2
26622;SDS011;14254;50.968;5.366;2022-11-20T00:00:24;40.17;;;21.88;;
26622;SDS011;14254;50.968;5.366;2022-11-20T00:02:49;42.63;;;22.27;;
26622;SDS011;14254;50.968;5.366;2022-11-20T00:05:15;43.55;;;23.10;;
26622;SDS011;14254;50.968;5.366;2022-11-20T00:07:41;38.42;;;21.50;;
26622;SDS011;14254;50.968;5.366;2022-11-20T00:10:07;32.88;;;19.17;;
26622;SDS011;14254;50.968;5.366;2022-11-20T00:12:33;42.80;;;23.85;;
26622;SDS011;14254;50.968;5.366;2022-11-20T00:14:58;37.70;;;21.17;;
26622;SDS011;14254;50.968;5.366;2022-11-20T00:17:24;42.85;;;22.25;;
26622;SDS011;14254;50.968;5.366;2022-11-20T00:19:50;42.85;;;22.90;;
26622;SDS011;14254;50.968;5.366;2022-11-20T00:22:16;44.33;;;23.05;;
26622;SDS011;14254;50.968;5.366;2022-11-20T00:24:42;40.78;;;21.52;;
26622;SDS011;14254;50.968;5.366;2022-11-20T00:27:08;40.80;;;22.63;;
26622;SDS011;14254;50.968;5.366;2022-11-20T00:29:34;38.15;;;22.70;;
26622;SDS011;14254;50.968;5.366;2022-11-20T00:32:00;42.40;;;23.13;;
26622;SDS011;14254;50.968;5.366;2022-11-20T00:34:25;41.72;;;22.20;;
26622;SDS011;14254;50.968;5.366;2022-11-20T00:36:51;44.15;;;24.05;;
26622;SDS011;14254;50.968;5.366;2022-11-20T00:39:16;42.80;;;22.92;;
26622;SDS011;14254;50.968;5.366;2022-11-20T00:41:42;41.92;;;22.08;;
26622;SDS011;14254;50.968;5.366;2022-11-20T00:44:08;39.50;;;20.98;;
26622;SDS011;14254;50.968;5.366;2022-11-20T00:46:33;41.25;;;22.67;;
26622;SDS011;14254;50.968;5.366;2022-11-20T00:48:59;40.40;;;22.45;;
26622;SDS011;14254;50.968;5.366;2022-11-20T00:51:26;41.80;;;22.25;;
26622;SDS011;14254;50.968;5.366;2022-11-20T00:53:54;40.25;;;21.92;;
26622;SDS011;14254;50.968;5.366;2022-11-20T00:56:20;39.90;;;22.63;;
26622;SDS011;14254;50.968;5.366;2022-11-20T00:58:47;41.22;;;22.15;;
26622;SDS011;14254;50.968;5.366;2022-11-20T01:03:45;39.42;;;21.52;;
26622;SDS011;14254;50.968;5.366;2022-11-20T01:06:13;40.58;;;22.42;;
26622;SDS011;14254;50.968;5.366;2022-11-20T01:11:17;41.70;;;22.00;;
26622;SDS011;14254;50.968;5.366;2022-11-20T01:13:46;40.55;;;21.65;;
26622;SDS011;14254;50.968;5.366;2022-11-20T01:16:18;43.50;;;23.08;;
26622;SDS011;14254;50.968;5.366;2022-11-20T01:18:45;35.78;;;19.42;;
26622;SDS011;14254;50.968;5.366;2022-11-20T01:21:17;42.30;;;22.02;;
26622;SDS011;14254;50.968;5.366;2022-11-20T01:23:44;30.05;;;16.90;;
26622;SDS011;14254;50.968;5.366;2022-11-20T01:26:18;38.42;;;21.88;;
26622;SDS011;14254;50.968;5.366;2022-11-20T01:28:45;43.05;;;22.60;;
26622;SDS011;14254;50.968;5.366;2022-11-20T01:31:16;39.78;;;21.75;;
26622;SDS011;14254;50.968;5.366;2022-11-20T01:33:43;38.10;;;20.83;;
26622;SDS011;14254;50.968;5.366;2022-11-20T01:36:10;43.33;;;22.98;;
26622;SDS011;14254;50.968;5.366;2022-11-20T01:38:36;42.50;;;21.67;;
26622;SDS011;14254;50.968;5.366;2022-11-20T01:41:03;42.13;;;22.27;;
26622;SDS011;14254;50.968;5.366;2022-11-20T01:43:29;42.78;;;21.88;;
26622;SDS011;14254;50.968;5.366;2022-11-20T01:48:25;40.13;;;22.52;;
26622;SDS011;14254;50.968;5.366;2022-11-20T01:51:00;40.50;;;23.33;;
26622;SDS011;14254;50.968;5.366;2022-11-20T01:53:28;40.55;;;21.45;;
26622;SDS011;14254;50.968;5.366;2022-11-20T01:55:57;39.55;;;22.08;;
26622;SDS011;14254;50.968;5.366;2022-11-20T01:58:30;38.85;;;21.08;;
26622;SDS011;14254;50.968;5.366;2022-11-20T02:01:00;40.35;;;21.75;;
26622;SDS011;14254;50.968;5.366;2022-11-20T02:03:27;35.88;;;21.52;;
26622;SDS011;14254;50.968;5.366;2022-11-20T02:08:49;39.83;;;22.63;;
26622;SDS011;14254;50.968;5.366;2022-11-20T02:11:16;41.50;;;21.70;;
26622;SDS011;14254;50.968;5.366;2022-11-20T02:13:41;40.50;;;23.45;;
26622;SDS011;14254;50.968;5.366;2022-11-20T02:18:47;41.33;;;22.42;;
26622;SDS011;14254;50.968;5.366;2022-11-20T02:24:23;40.53;;;23.23;;
26622;SDS011;14254;50.968;5.366;2022-11-20T02:26:50;42.90;;;23.92;;
26622;SDS011;14254;50.968;5.366;2022-11-20T02:29:19;40.53;;;21.70;;
26622;SDS011;14254;50.968;5.366;2022-11-20T02:31:52;38.65;;;21.92;;
26622;SDS011;14254;50.968;5.366;2022-11-20T02:34:20;38.03;;;21.92;;
26622;SDS011;14254;50.968;5.366;2022-11-20T02:36:46;35.78;;;21.20;;
26622;SDS011;14254;50.968;5.366;2022-11-20T02:39:13;41.10;;;23.02;;
26622;SDS011;14254;50.968;5.366;2022-11-20T02:41:41;42.83;;;21.83;;
26622;SDS011;14254;50.968;5.366;2022-11-20T02:44:07;43.95;;;21.95;;
26622;SDS011;14254;50.968;5.366;2022-11-20T02:46:33;40.83;;;22.52;;
26622;SDS011;14254;50.968;5.366;2022-11-20T02:49:00;37.60;;;21.05;;
26622;SDS011;14254;50.968;5.366;2022-11-20T02:51:29;42.28;;;21.67;;
26622;SDS011;14254;50.968;5.366;2022-11-20T02:53:56;37.35;;;20.40;;
26622;SDS011;14254;50.968;5.366;2022-11-20T02:56:21;38.90;;;20.88;;
26622;SDS011;14254;50.968;5.366;2022-11-20T02:58:47;38.05;;;20.67;;
26622;SDS011;14254;50.968;5.366;2022-11-20T03:01:13;36.80;;;21.20;;
26622;SDS011;14254;50.968;5.366;2022-11-20T03:03:39;39.60;;;21.23;;
26622;SDS011;14254;50.968;5.366;2022-11-20T03:06:05;37.65;;;21.25;;
26622;SDS011;14254;50.968;5.366;2022-11-20T03:08:31;37.35;;;20.50;;
26622;SDS011;14254;50.968;5.366;2022-11-20T03:11:01;38.80;;;22.13;;
26622;SDS011;14254;50.968;5.366;2022-11-20T03:13:32;36.22;;;20.38;;
26622;SDS011;14254;50.968;5.366;2022-11-20T03:15:58;36.92;;;21.63;;
26622;SDS011;14254;50.968;5.366;2022-11-20T03:18:30;38.85;;;21.50;;
26622;SDS011;14254;50.968;5.366;2022-11-20T03:20:57;42.85;;;21.90;;
26622;SDS011;14254;50.968;5.366;2022-11-20T03:23:23;34.40;;;20.30;;
26622;SDS011;14254;50.968;5.366;2022-11-20T03:25:49;41.78;;;22.45;;
26622;SDS011;14254;50.968;5.366;2022-11-20T03:28:15;36.90;;;19.77;;
26622;SDS011;14254;50.968;5.366;2022-11-20T03:30:41;36.65;;;20.73;;
26622;SDS011;14254;50.968;5.366;2022-11-20T03:33:06;41.83;;;21.02;;
26622;SDS011;14254;50.968;5.366;2022-11-20T03:35:32;38.40;;;20.55;;
26622;SDS011;14254;50.968;5.366;2022-11-20T03:37:58;37.25;;;20.92;;
26622;SDS011;14254;50.968;5.366;2022-11-20T03:40:23;37.08;;;21.25;;
26622;SDS011;14254;50.968;5.366;2022-11-20T03:42:49;39.63;;;21.85;;
26622;SDS011;14254;50.968;5.366;2022-11-20T03:45:18;37.50;;;21.35;;
26622;SDS011;14254;50.968;5.366;2022-11-20T03:47:44;39.35;;;21.60;;
26622;SDS011;14254;50.968;5.366;2022-11-20T03:50:10;37.35;;;22.00;;
26622;SDS011;14254;50.968;5.366;2022-11-20T03:52:38;41.35;;;22.27;;
26622;SDS011;14254;50.968;5.366;2022-11-20T03:55:05;40.63;;;22.02;;
26622;SDS011;14254;50.968;5.366;2022-11-20T03:57:31;36.75;;;21.38;;
26622;SDS011;14254;50.968;5.366;2022-11-20T03:59:57;42.80;;;22.10;;
26622;SDS011;14254;50.968;5.366;2022-11-20T04:02:22;42.90;;;22.88;;
26622;SDS011;14254;50.968;5.366;2022-11-20T04:04:48;35.72;;;19.73;;
26622;SDS011;14254;50.968;5.366;2022-11-20T04:07:14;41.53;;;22.08;;
26622;SDS011;14254;50.968;5.366;2022-11-20T04:09:39;39.53;;;20.98;;
26622;SDS011;14254;50.968;5.366;2022-11-20T04:12:05;42.38;;;22.15;;
26622;SDS011;14254;50.968;5.366;2022-11-20T04:14:30;41.83;;;21.70;;
26622;SDS011;14254;50.968;5.366;2022-11-20T04:16:56;40.78;;;22.85;;
26622;SDS011;14254;50.968;5.366;2022-11-20T04:19:22;38.85;;;21.92;;
26622;SDS011;14254;50.968;5.366;2022-11-20T04:21:47;42.00;;;22.63;;
26622;SDS011;14254;50.968;5.366;2022-11-20T04:24:13;36.75;;;21.30;;
26622;SDS011;14254;50.968;5.366;2022-11-20T04:26:39;40.22;;;21.30;;
26622;SDS011;14254;50.968;5.366;2022-11-20T04:29:05;47.58;;;24.00;;
26622;SDS011;14254;50.968;5.366;2022-11-20T04:31:31;43.70;;;24.40;;
26622;SDS011;14254;50.968;5.366;2022-11-20T04:33:59;40.35;;;21.77;;
26622;SDS011;14254;50.968;5.366;2022-11-20T04:36:29;45.08;;;23.30;;
26622;SDS011;14254;50.968;5.366;2022-11-20T04:38:59;41.58;;;24.10;;
26622;SDS011;14254;50.968;5.366;2022-11-20T04:41:30;41.47;;;23.07;;
26622;SDS011;14254;50.968;5.366;2022-11-20T04:43:58;41.28;;;22.55;;
26622;SDS011;14254;50.968;5.366;2022-11-20T04:46:28;47.35;;;23.55;;
26622;SDS011;14254;50.968;5.366;2022-11-20T04:48:59;51.53;;;25.85;;
26622;SDS011;14254;50.968;5.366;2022-11-20T04:51:24;51.50;;;25.70;;
26622;SDS011;14254;50.968;5.366;2022-11-20T04:53:50;49.38;;;26.10;;
26622;SDS011;14254;50.968;5.366;2022-11-20T04:56:16;46.42;;;26.10;;
26622;SDS011;14254;50.968;5.366;2022-11-20T04:58:42;56.40;;;25.75;;
26622;SDS011;14254;50.968;5.366;2022-11-20T05:03:36;58.33;;;26.45;;
26622;SDS011;14254;50.968;5.366;2022-11-20T05:06:03;54.22;;;26.75;;
26622;SDS011;14254;50.968;5.366;2022-11-20T05:08:30;59.03;;;27.02;;
26622;SDS011;14254;50.968;5.366;2022-11-20T05:11:06;63.05;;;28.00;;
26622;SDS011;14254;50.968;5.366;2022-11-20T05:13:34;55.60;;;25.77;;
26622;SDS011;14254;50.968;5.366;2022-11-20T05:16:04;56.78;;;26.95;;
26622;SDS011;14254;50.968;5.366;2022-11-20T05:18:33;71.28;;;31.80;;
26622;SDS011;14254;50.968;5.366;2022-11-20T05:20:59;67.13;;;29.75;;
26622;SDS011;14254;50.968;5.366;2022-11-20T05:23:26;62.67;;;29.48;;
26622;SDS011;14254;50.968;5.366;2022-11-20T05:25:54;72.38;;;31.77;;
26622;SDS011;14254;50.968;5.366;2022-11-20T05:28:20;56.28;;;28.55;;
26622;SDS011;14254;50.968;5.366;2022-11-20T05:30:46;65.00;;;30.70;;
26622;SDS011;14254;50.968;5.366;2022-11-20T05:33:12;66.47;;;30.98;;
26622;SDS011;14254;50.968;5.366;2022-11-20T05:35:38;61.25;;;28.17;;
26622;SDS011;14254;50.968;5.366;2022-11-20T05:38:04;65.70;;;30.88;;
26622;SDS011;14254;50.968;5.366;2022-11-20T05:40:29;67.72;;;30.45;;
26622;SDS011;14254;50.968;5.366;2022-11-20T05:42:55;57.95;;;28.92;;
26622;SDS011;14254;50.968;5.366;2022-11-20T05:45:21;78.90;;;33.83;;
26622;SDS011;14254;50.968;5.366;2022-11-20T05:47:46;59.88;;;28.63;;
26622;SDS011;14254;50.968;5.366;2022-11-20T05:50:13;74.47;;;31.23;;
26622;SDS011;14254;50.968;5.366;2022-11-20T05:52:39;68.45;;;31.08;;
26622;SDS011;14254;50.968;5.366;2022-11-20T05:55:05;70.95;;;28.50;;
26622;SDS011;14254;50.968;5.366;2022-11-20T05:57:31;55.45;;;26.38;;
26622;SDS011;14254;50.968;5.366;2022-11-20T05:59:57;57.78;;;26.58;;
26622;SDS011;14254;50.968;5.366;2022-11-20T06:02:22;61.88;;;27.95;;
26622;SDS011;14254;50.968;5.366;2022-11-20T06:04:48;60.60;;;26.13;;
26622;SDS011;14254;50.968;5.366;2022-11-20T06:07:14;61.38;;;26.75;;
26622;SDS011;14254;50.968;5.366;2022-11-20T06:09:40;62.65;;;27.55;;
26622;SDS011;14254;50.968;5.366;2022-11-20T06:12:05;69.05;;;29.52;;
26622;SDS011;14254;50.968;5.366;2022-11-20T06:14:32;62.47;;;27.88;;
26622;SDS011;14254;50.968;5.366;2022-11-20T06:16:58;63.80;;;28.48;;
26622;SDS011;14254;50.968;5.366;2022-11-20T06:19:24;65.70;;;29.83;;
26622;SDS011;14254;50.968;5.366;2022-11-20T06:21:49;63.60;;;28.05;;
26622;SDS011;14254;50.968;5.366;2022-11-20T06:24:16;81.15;;;30.27;;
26622;SDS011;14254;50.968;5.366;2022-11-20T06:26:42;74.25;;;30.27;;
26622;SDS011;14254;50.968;5.366;2022-11-20T06:29:07;69.55;;;31.23;;
26622;SDS011;14254;50.968;5.366;2022-11-20T06:31:33;64.18;;;30.05;;
26622;SDS011;14254;50.968;5.366;2022-11-20T06:34:02;66.95;;;29.08;;
26622;SDS011;14254;50.968;5.366;2022-11-20T06:36:29;66.63;;;28.70;;
26622;SDS011;14254;50.968;5.366;2022-11-20T06:38:55;67.20;;;29.75;;
26622;SDS011;14254;50.968;5.366;2022-11-20T06:41:21;76.30;;;30.20;;
26622;SDS011;14254;50.968;5.366;2022-11-20T06:43:47;65.47;;;28.85;;
26622;SDS011;14254;50.968;5.366;2022-11-20T06:46:13;66.10;;;29.85;;
26622;SDS011;14254;50.968;5.366;2022-11-20T06:48:42;70.50;;;28.58;;
26622;SDS011;14254;50.968;5.366;2022-11-20T06:51:08;62.78;;;28.95;;
26622;SDS011;14254;50.968;5.366;2022-11-20T06:53:34;70.28;;;31.30;;
26622;SDS011;14254;50.968;5.366;2022-11-20T06:56:00;61.53;;;28.92;;
26622;SDS011;14254;50.968;5.366;2022-11-20T06:58:27;66.95;;;29.27;;
26622;SDS011;14254;50.968;5.366;2022-11-20T07:00:53;71.22;;;29.35;;
26622;SDS011;14254;50.968;5.366;2022-11-20T07:03:23;63.22;;;29.45;;
26622;SDS011;14254;50.968;5.366;2022-11-20T07:05:48;66.13;;;28.20;;
26622;SDS011;14254;50.968;5.366;2022-11-20T07:08:14;64.22;;;29.23;;
26622;SDS011;14254;50.968;5.366;2022-11-20T07:10:39;62.08;;;29.70;;
26622;SDS011;14254;50.968;5.366;2022-11-20T07:13:05;67.38;;;28.67;;
26622;SDS011;14254;50.968;5.366;2022-11-20T07:15:31;74.40;;;30.40;;
26622;SDS011;14254;50.968;5.366;2022-11-20T07:18:01;69.30;;;29.92;;
26622;SDS011;14254;50.968;5.366;2022-11-20T07:20:27;63.00;;;28.55;;
26622;SDS011;14254;50.968;5.366;2022-11-20T07:22:53;72.55;;;31.10;;
26622;SDS011;14254;50.968;5.366;2022-11-20T07:25:20;65.65;;;29.02;;
26622;SDS011;14254;50.968;5.366;2022-11-20T07:27:56;66.38;;;27.80;;
26622;SDS011;14254;50.968;5.366;2022-11-20T07:30:25;70.40;;;29.80;;
26622;SDS011;14254;50.968;5.366;2022-11-20T07:32:54;65.65;;;29.25;;
26622;SDS011;14254;50.968;5.366;2022-11-20T07:35:21;63.60;;;28.88;;
26622;SDS011;14254;50.968;5.366;2022-11-20T07:37:50;63.20;;;28.13;;
26622;SDS011;14254;50.968;5.366;2022-11-20T07:40:16;60.03;;;27.58;;
26622;SDS011;14254;50.968;5.366;2022-11-20T07:42:49;68.13;;;29.23;;
26622;SDS011;14254;50.968;5.366;2022-11-20T07:45:16;60.10;;;28.02;;
26622;SDS011;14254;50.968;5.366;2022-11-20T07:47:43;63.20;;;29.15;;
26622;SDS011;14254;50.968;5.366;2022-11-20T07:50:09;67.55;;;30.60;;
26622;SDS011;14254;50.968;5.366;2022-11-20T07:52:35;60.72;;;28.02;;
26622;SDS011;14254;50.968;5.366;2022-11-20T07:55:01;67.60;;;30.70;;
26622;SDS011;14254;50.968;5.366;2022-11-20T07:57:26;70.90;;;30.27;;
26622;SDS011;14254;50.968;5.366;2022-11-20T07:59:52;69.05;;;30.63;;
26622;SDS011;14254;50.968;5.366;2022-11-20T08:02:17;63.63;;;29.23;;
26622;SDS011;14254;50.968;5.366;2022-11-20T08:04:43;67.38;;;31.13;;
26622;SDS011;14254;50.968;5.366;2022-11-20T08:07:09;63.00;;;29.48;;
26622;SDS011;14254;50.968;5.366;2022-11-20T08:09:34;63.40;;;28.88;;
26622;SDS011;14254;50.968;5.366;2022-11-20T08:12:00;58.38;;;27.77;;
26622;SDS011;14254;50.968;5.366;2022-11-20T08:14:44;68.32;;;30.92;;
26622;SDS011;14254;50.968;5.366;2022-11-20T08:17:09;58.80;;;28.30;;
26622;SDS011;14254;50.968;5.366;2022-11-20T08:19:35;64.45;;;29.70;;
26622;SDS011;14254;50.968;5.366;2022-11-20T08:22:01;63.03;;;28.70;;
26622;SDS011;14254;50.968;5.366;2022-11-20T08:24:26;63.92;;;28.05;;
26622;SDS011;14254;50.968;5.366;2022-11-20T08:26:52;69.13;;;27.77;;
26622;SDS011;14254;50.968;5.366;2022-11-20T08:29:18;62.20;;;29.15;;
26622;SDS011;14254;50.968;5.366;2022-11-20T08:31:43;58.35;;;27.67;;
26622;SDS011;14254;50.968;5.366;2022-11-20T08:34:09;64.13;;;28.27;;
26622;SDS011;14254;50.968;5.366;2022-11-20T08:36:35;54.90;;;26.92;;
26622;SDS011;14254;50.968;5.366;2022-11-20T08:39:01;58.28;;;28.40;;
26622;SDS011;14254;50.968;5.366;2022-11-20T08:41:28;58.35;;;27.20;;
26622;SDS011;14254;50.968;5.366;2022-11-20T08:44:01;61.80;;;28.85;;
26622;SDS011;14254;50.968;5.366;2022-11-20T08:46:33;62.28;;;28.58;;
26622;SDS011;14254;50.968;5.366;2022-11-20T08:49:04;60.45;;;27.77;;
26622;SDS011;14254;50.968;5.366;2022-11-20T08:51:31;61.67;;;28.63;;
26622;SDS011;14254;50.968;5.366;2022-11-20T08:53:57;68.18;;;30.33;;
26622;SDS011;14254;50.968;5.366;2022-11-20T08:56:23;61.20;;;28.85;;
26622;SDS011;14254;50.968;5.366;2022-11-20T08:58:49;64.53;;;29.20;;
26622;SDS011;14254;50.968;5.366;2022-11-20T09:01:19;66.25;;;30.23;;
26622;SDS011;14254;50.968;5.366;2022-11-20T09:03:46;68.03;;;29.95;;
26622;SDS011;14254;50.968;5.366;2022-11-20T09:06:12;68.90;;;30.10;;
26622;SDS011;14254;50.968;5.366;2022-11-20T09:08:38;64.88;;;29.48;;
26622;SDS011;14254;50.968;5.366;2022-11-20T09:11:04;68.57;;;29.77;;
26622;SDS011;14254;50.968;5.366;2022-11-20T09:13:31;68.90;;;29.85;;
26622;SDS011;14254;50.968;5.366;2022-11-20T09:15:59;61.50;;;28.35;;
26622;SDS011;14254;50.968;5.366;2022-11-20T09:18:26;64.72;;;29.50;;
26622;SDS011;14254;50.968;5.366;2022-11-20T09:20:57;68.30;;;30.48;;
26622;SDS011;14254;50.968;5.366;2022-11-20T09:23:24;67.05;;;29.45;;
26622;SDS011;14254;50.968;5.366;2022-11-20T09:25:50;65.13;;;30.55;;
26622;SDS011;14254;50.968;5.366;2022-11-20T09:28:15;60.45;;;28.38;;
26622;SDS011;14254;50.968;5.366;2022-11-20T09:30:43;57.88;;;27.88;;
26622;SDS011;14254;50.968;5.366;2022-11-20T09:33:09;62.92;;;28.55;;
26622;SDS011;14254;50.968;5.366;2022-11-20T09:35:35;61.50;;;30.00;;
26622;SDS011;14254;50.968;5.366;2022-11-20T09:38:04;66.30;;;29.17;;
26622;SDS011;14254;50.968;5.366;2022-11-20T09:40:31;61.45;;;29.67;;
26622;SDS011;14254;50.968;5.366;2022-11-20T09:43:07;62.10;;;29.08;;
26622;SDS011;14254;50.968;5.366;2022-11-20T09:48:39;61.67;;;28.45;;
26622;SDS011;14254;50.968;5.366;2022-11-20T09:51:20;63.92;;;28.60;;
26622;SDS011;14254;50.968;5.366;2022-11-20T09:54:20;44.17;;;22.63;;
26622;SDS011;14254;50.968;5.366;2022-11-20T09:56:50;64.00;;;29.30;;
26622;SDS011;14254;50.968;5.366;2022-11-20T10:07:40;60.80;;;28.42;;
26622;SDS011;14254;50.968;5.366;2022-11-20T10:10:45;66.38;;;30.17;;
26622;SDS011;14254;50.968;5.366;2022-11-20T10:13:57;63.03;;;26.85;;
26622;SDS011;14254;50.968;5.366;2022-11-20T10:16:08;62.28;;;29.73;;
26622;SDS011;14254;50.968;5.366;2022-11-20T10:19:04;62.35;;;29.27;;
26622;SDS011;14254;50.968;5.366;2022-11-20T10:24:44;68.35;;;30.15;;
26622;SDS011;14254;50.968;5.366;2022-11-20T10:30:22;70.43;;;30.08;;
26622;SDS011;14254;50.968;5.366;2022-11-20T10:33:00;70.78;;;30.35;;
26622;SDS011;14254;50.968;5.366;2022-11-20T10:38:06;72.90;;;30.33;;
26622;SDS011;14254;50.968;5.366;2022-11-20T10:40:57;68.30;;;29.58;;
26622;SDS011;14254;50.968;5.366;2022-11-20T10:43:44;67.28;;;28.23;;
26622;SDS011;14254;50.968;5.366;2022-11-20T10:46:15;65.50;;;28.65;;
26622;SDS011;14254;50.968;5.366;2022-11-20T10:48:43;79.57;;;30.75;;
26622;SDS011;14254;50.968;5.366;2022-11-20T10:51:30;78.47;;;30.65;;
26622;SDS011;14254;50.968;5.366;2022-11-20T10:56:53;81.55;;;31.65;;
26622;SDS011;14254;50.968;5.366;2022-11-20T10:59:57;77.60;;;30.35;;
26622;SDS011;14254;50.968;5.366;2022-11-20T11:05:14;72.55;;;29.40;;
26622;SDS011;14254;50.968;5.366;2022-11-20T11:07:42;72.97;;;30.13;;
26622;SDS011;14254;50.968;5.366;2022-11-20T11:12:47;71.70;;;29.85;;
26622;SDS011;14254;50.968;5.366;2022-11-20T11:15:27;77.25;;;30.15;;
26622;SDS011;14254;50.968;5.366;2022-11-20T11:18:03;74.32;;;30.65;;
26622;SDS011;14254;50.968;5.366;2022-11-20T11:20:28;77.78;;;30.92;;
26622;SDS011;14254;50.968;5.366;2022-11-20T11:22:55;82.18;;;31.15;;
26622;SDS011;14254;50.968;5.366;2022-11-20T11:25:26;75.70;;;30.77;;
26622;SDS011;14254;50.968;5.366;2022-11-20T11:27:53;82.15;;;31.15;;
26622;SDS011;14254;50.968;5.366;2022-11-20T11:30:21;78.70;;;30.13;;
26622;SDS011;14254;50.968;5.366;2022-11-20T11:32:48;73.65;;;28.70;;
26622;SDS011;14254;50.968;5.366;2022-11-20T11:35:21;75.82;;;30.08;;
26622;SDS011;14254;50.968;5.366;2022-11-20T11:37:50;68.40;;;28.85;;
26622;SDS011;14254;50.968;5.366;2022-11-20T11:40:19;70.18;;;29.75;;
26622;SDS011;14254;50.968;5.366;2022-11-20T11:42:53;78.25;;;28.70;;
26622;SDS011;14254;50.968;5.366;2022-11-20T11:45:24;77.97;;;30.75;;
26622;SDS011;14254;50.968;5.366;2022-11-20T11:47:50;74.60;;;28.13;;
26622;SDS011;14254;50.968;5.366;2022-11-20T11:50:22;67.20;;;30.02;;
26622;SDS011;14254;50.968;5.366;2022-11-20T12:00:54;71.43;;;28.17;;
26622;SDS011;14254;50.968;5.366;2022-11-20T12:03:52;68.13;;;28.40;;
26622;SDS011;14254;50.968;5.366;2022-11-20T12:06:32;67.40;;;28.58;;
26622;SDS011;14254;50.968;5.366;2022-11-20T12:09:11;64.40;;;28.65;;
26622;SDS011;14254;50.968;5.366;2022-11-20T12:11:45;60.17;;;25.83;;
26622;SDS011;14254;50.968;5.366;2022-11-20T12:16:49;58.58;;;26.60;;
26622;SDS011;14254;50.968;5.366;2022-11-20T12:19:17;59.95;;;26.38;;
26622;SDS011;14254;50.968;5.366;2022-11-20T12:35:21;52.35;;;25.70;;
26622;SDS011;14254;50.968;5.366;2022-11-20T12:44:25;56.42;;;24.25;;
26622;SDS011;14254;50.968;5.366;2022-11-20T12:50:20;44.85;;;21.73;;
26622;SDS011;14254;50.968;5.366;2022-11-20T13:06:54;8.75;;;4.60;;
26622;SDS011;14254;50.968;5.366;2022-11-20T13:09:20;6.85;;;3.47;;
26622;SDS011;14254;50.968;5.366;2022-11-20T13:11:50;10.65;;;3.30;;
26622;SDS011;14254;50.968;5.366;2022-11-20T13:14:33;7.47;;;2.50;;
26622;SDS011;14254;50.968;5.366;2022-11-20T13:17:14;7.80;;;2.80;;
26622;SDS011;14254;50.968;5.366;2022-11-20T13:19:55;8.45;;;2.40;;
26622;SDS011;14254;50.968;5.366;2022-11-20T13:22:27;7.35;;;2.40;;
26622;SDS011;14254;50.968;5.366;2022-11-20T13:24:54;12.05;;;2.30;;
26622;SDS011;14254;50.968;5.366;2022-11-20T13:27:23;4.45;;;1.67;;
26622;SDS011;14254;50.968;5.366;2022-11-20T13:29:59;12.40;;;2.13;;
26622;SDS011;14254;50.968;5.366;2022-11-20T13:32:57;11.43;;;2.42;;
26622;SDS011;14254;50.968;5.366;2022-11-20T13:35:30;7.68;;;2.42;;
26622;SDS011;14254;50.968;5.366;2022-11-20T13:37:59;4.00;;;2.10;;
26622;SDS011;14254;50.968;5.366;2022-11-20T13:43:40;12.00;;;2.60;;
26622;SDS011;14254;50.968;5.366;2022-11-20T13:46:08;8.43;;;2.13;;
26622;SDS011;14254;50.968;5.366;2022-11-20T13:48:45;11.23;;;3.15;;
26622;SDS011;14254;50.968;5.366;2022-11-20T13:54:09;11.23;;;2.63;;
26622;SDS011;14254;50.968;5.366;2022-11-20T14:02:35;11.13;;;2.40;;
26622;SDS011;14254;50.968;5.366;2022-11-20T14:05:01;4.43;;;2.30;;
26622;SDS011;14254;50.968;5.366;2022-11-20T14:07:32;10.05;;;2.22;;
26622;SDS011;14254;50.968;5.366;2022-11-20T14:10:02;4.97;;;2.40;;
26622;SDS011;14254;50.968;5.366;2022-11-20T14:12:29;5.88;;;2.40;;
26622;SDS011;14254;50.968;5.366;2022-11-20T14:14:56;9.00;;;2.75;;
26622;SDS011;14254;50.968;5.366;2022-11-20T14:17:23;6.78;;;1.83;;
26622;SDS011;14254;50.968;5.366;2022-11-20T14:19:58;14.40;;;3.95;;
26622;SDS011;14254;50.968;5.366;2022-11-20T14:22:36;11.45;;;3.72;;
26622;SDS011;14254;50.968;5.366;2022-11-20T14:27:29;8.07;;;3.25;;
26622;SDS011;14254;50.968;5.366;2022-11-20T14:30:02;12.85;;;3.58;;
26622;SDS011;14254;50.968;5.366;2022-11-20T14:32:29;9.98;;;3.10;;
26622;SDS011;14254;50.968;5.366;2022-11-20T14:34:56;13.57;;;3.83;;
26622;SDS011;14254;50.968;5.366;2022-11-20T14:37:27;12.20;;;3.60;;
26622;SDS011;14254;50.968;5.366;2022-11-20T14:39:57;7.32;;;3.42;;
26622;SDS011;14254;50.968;5.366;2022-11-20T14:42:27;10.30;;;3.65;;
26622;SDS011;14254;50.968;5.366;2022-11-20T14:47:23;6.00;;;3.47;;
26622;SDS011;14254;50.968;5.366;2022-11-20T14:49:52;15.80;;;4.13;;
26622;SDS011;14254;50.968;5.366;2022-11-20T14:52:23;9.77;;;3.90;;
26622;SDS011;14254;50.968;5.366;2022-11-20T14:54:51;9.02;;;3.20;;
26622;SDS011;14254;50.968;5.366;2022-11-20T15:00:03;6.70;;;4.07;;
26622;SDS011;14254;50.968;5.366;2022-11-20T15:02:38;10.50;;;4.60;;
26622;SDS011;14254;50.968;5.366;2022-11-20T15:05:08;15.80;;;4.50;;
26622;SDS011;14254;50.968;5.366;2022-11-20T15:07:35;15.30;;;4.47;;
26622;SDS011;14254;50.968;5.366;2022-11-20T15:10:03;15.52;;;5.05;;
26622;SDS011;14254;50.968;5.366;2022-11-20T15:12:33;10.48;;;4.88;;
26622;SDS011;14254;50.968;5.366;2022-11-20T15:15:02;17.45;;;5.20;;
26622;SDS011;14254;50.968;5.366;2022-11-20T15:17:30;8.80;;;5.07;;
26622;SDS011;14254;50.968;5.366;2022-11-20T15:19:56;9.93;;;5.47;;
26622;SDS011;14254;50.968;5.366;2022-11-20T15:22:22;13.18;;;4.45;;
26622;SDS011;14254;50.968;5.366;2022-11-20T15:24:48;7.47;;;4.93;;
26622;SDS011;14254;50.968;5.366;2022-11-20T15:27:14;10.57;;;5.10;;
26622;SDS011;14254;50.968;5.366;2022-11-20T15:29:40;16.42;;;5.57;;
26622;SDS011;14254;50.968;5.366;2022-11-20T15:32:07;9.45;;;5.28;;
26622;SDS011;14254;50.968;5.366;2022-11-20T15:34:33;13.18;;;5.57;;
26622;SDS011;14254;50.968;5.366;2022-11-20T15:36:59;10.15;;;5.88;;
26622;SDS011;14254;50.968;5.366;2022-11-20T15:39:24;9.90;;;5.57;;
26622;SDS011;14254;50.968;5.366;2022-11-20T15:41:50;9.20;;;5.85;;
26622;SDS011;14254;50.968;5.366;2022-11-20T15:44:16;19.13;;;5.95;;
26622;SDS011;14254;50.968;5.366;2022-11-20T15:46:41;11.70;;;5.38;;
26622;SDS011;14254;50.968;5.366;2022-11-20T15:49:13;13.38;;;6.18;;
26622;SDS011;14254;50.968;5.366;2022-11-20T15:51:44;12.75;;;5.10;;
26622;SDS011;14254;50.968;5.366;2022-11-20T15:54:15;17.25;;;6.13;;
26622;SDS011;14254;50.968;5.366;2022-11-20T15:56:44;8.57;;;5.57;;
26622;SDS011;14254;50.968;5.366;2022-11-20T15:59:11;8.73;;;4.30;;
26622;SDS011;14254;50.968;5.366;2022-11-20T16:01:39;8.68;;;4.20;;
26622;SDS011;14254;50.968;5.366;2022-11-20T16:04:09;8.45;;;4.28;;
26622;SDS011;14254;50.968;5.366;2022-11-20T16:06:36;11.87;;;5.40;;
26622;SDS011;14254;50.968;5.366;2022-11-20T16:09:02;14.70;;;5.10;;
26622;SDS011;14254;50.968;5.366;2022-11-20T16:11:27;9.95;;;4.70;;
26622;SDS011;14254;50.968;5.366;2022-11-20T16:13:53;8.90;;;4.80;;
26622;SDS011;14254;50.968;5.366;2022-11-20T16:16:37;6.30;;;4.43;;
26622;SDS011;14254;50.968;5.366;2022-11-20T16:19:05;7.20;;;4.20;;
26622;SDS011;14254;50.968;5.366;2022-11-20T16:21:31;9.50;;;5.22;;
26622;SDS011;14254;50.968;5.366;2022-11-20T16:24:01;6.47;;;4.28;;
26622;SDS011;14254;50.968;5.366;2022-11-20T16:26:28;9.18;;;5.35;;
26622;SDS011;14254;50.968;5.366;2022-11-20T16:28:54;8.70;;;5.90;;